sensor_id;sensor_type;location;lat;lon;timestamp;P1;durP1;ratioP1;P2;durP2;ratioP2
77602;SDS011;66771;52.434;17.056;2023-03-01T00:01:33;176.00;;;79.00;;
77602;SDS011;66771;52.434;17.056;2023-03-01T00:04:00;169.40;;;79.30;;
77602;SDS011;66771;52.434;17.056;2023-03-01T00:06:27;173.80;;;81.50;;
77602;SDS011;66771;52.434;17.056;2023-03-01T00:08:54;159.80;;;76.90;;
77602;SDS011;66771;52.434;17.056;2023-03-01T00:14:10;139.00;;;66.40;;
77602;SDS011;66771;52.434;17.056;2023-03-01T00:16:41;162.30;;;74.30;;
77602;SDS011;66771;52.434;17.056;2023-03-01T00:19:11;158.10;;;72.90;;
77602;SDS011;66771;52.434;17.056;2023-03-01T00:21:40;157.50;;;73.40;;
77602;SDS011;66771;52.434;17.056;2023-03-01T00:24:07;170.00;;;75.10;;
77602;SDS011;66771;52.434;17.056;2023-03-01T00:26:35;146.30;;;72.00;;
77602;SDS011;66771;52.434;17.056;2023-03-01T00:29:03;170.40;;;77.60;;
77602;SDS011;66771;52.434;17.056;2023-03-01T00:31:31;162.30;;;75.50;;
77602;SDS011;66771;52.434;17.056;2023-03-01T00:34:00;158.70;;;75.00;;
77602;SDS011;66771;52.434;17.056;2023-03-01T00:36:31;180.50;;;80.00;;
77602;SDS011;66771;52.434;17.056;2023-03-01T00:39:00;160.80;;;75.40;;
77602;SDS011;66771;52.434;17.056;2023-03-01T00:41:29;153.30;;;73.10;;
77602;SDS011;66771;52.434;17.056;2023-03-01T00:43:56;162.30;;;74.70;;
77602;SDS011;66771;52.434;17.056;2023-03-01T00:46:24;144.00;;;70.80;;
77602;SDS011;66771;52.434;17.056;2023-03-01T00:48:53;162.30;;;72.30;;
77602;SDS011;66771;52.434;17.056;2023-03-01T00:51:25;164.90;;;72.30;;
77602;SDS011;66771;52.434;17.056;2023-03-01T00:53:58;159.10;;;74.80;;
77602;SDS011;66771;52.434;17.056;2023-03-01T00:56:27;168.50;;;77.00;;
77602;SDS011;66771;52.434;17.056;2023-03-01T00:58:55;151.40;;;73.50;;
77602;SDS011;66771;52.434;17.056;2023-03-01T01:01:24;182.30;;;79.50;;
77602;SDS011;66771;52.434;17.056;2023-03-01T01:03:56;153.30;;;73.70;;
77602;SDS011;66771;52.434;17.056;2023-03-01T01:06:29;156.50;;;71.30;;
77602;SDS011;66771;52.434;17.056;2023-03-01T01:08:58;157.40;;;73.40;;
77602;SDS011;66771;52.434;17.056;2023-03-01T01:11:26;160.00;;;75.30;;
77602;SDS011;66771;52.434;17.056;2023-03-01T01:13:54;161.20;;;75.10;;
77602;SDS011;66771;52.434;17.056;2023-03-01T01:16:23;162.00;;;72.40;;
77602;SDS011;66771;52.434;17.056;2023-03-01T01:18:52;134.20;;;63.20;;
77602;SDS011;66771;52.434;17.056;2023-03-01T01:21:20;153.80;;;70.40;;
77602;SDS011;66771;52.434;17.056;2023-03-01T01:23:49;151.00;;;67.00;;
77602;SDS011;66771;52.434;17.056;2023-03-01T01:26:18;151.20;;;70.40;;
77602;SDS011;66771;52.434;17.056;2023-03-01T01:28:47;140.90;;;67.70;;
77602;SDS011;66771;52.434;17.056;2023-03-01T01:31:15;153.10;;;68.90;;
77602;SDS011;66771;52.434;17.056;2023-03-01T01:33:42;158.40;;;66.80;;
77602;SDS011;66771;52.434;17.056;2023-03-01T01:36:10;150.60;;;68.50;;
77602;SDS011;66771;52.434;17.056;2023-03-01T01:38:37;141.20;;;66.30;;
77602;SDS011;66771;52.434;17.056;2023-03-01T01:41:05;164.70;;;72.10;;
77602;SDS011;66771;52.434;17.056;2023-03-01T01:43:33;138.60;;;70.10;;
77602;SDS011;66771;52.434;17.056;2023-03-01T01:46:10;151.10;;;71.30;;
77602;SDS011;66771;52.434;17.056;2023-03-01T01:48:45;147.50;;;70.00;;
77602;SDS011;66771;52.434;17.056;2023-03-01T01:51:18;129.50;;;61.10;;
77602;SDS011;66771;52.434;17.056;2023-03-01T01:53:49;131.10;;;62.50;;
77602;SDS011;66771;52.434;17.056;2023-03-01T01:56:19;132.80;;;64.60;;
77602;SDS011;66771;52.434;17.056;2023-03-01T01:58:48;137.60;;;63.10;;
77602;SDS011;66771;52.434;17.056;2023-03-01T02:01:16;126.30;;;60.80;;
77602;SDS011;66771;52.434;17.056;2023-03-01T02:03:43;143.40;;;63.50;;
77602;SDS011;66771;52.434;17.056;2023-03-01T02:06:26;147.00;;;68.00;;
77602;SDS011;66771;52.434;17.056;2023-03-01T02:09:17;134.40;;;62.90;;
77602;SDS011;66771;52.434;17.056;2023-03-01T02:11:58;140.60;;;63.00;;
77602;SDS011;66771;52.434;17.056;2023-03-01T02:36:39;139.80;;;62.80;;
77602;SDS011;66771;52.434;17.056;2023-03-01T02:43:58;129.60;;;60.50;;
77602;SDS011;66771;52.434;17.056;2023-03-01T02:47:36;131.20;;;57.60;;
77602;SDS011;66771;52.434;17.056;2023-03-01T02:58:19;146.60;;;64.40;;
77602;SDS011;66771;52.434;17.056;2023-03-01T03:00:53;139.20;;;64.40;;
77602;SDS011;66771;52.434;17.056;2023-03-01T03:03:31;134.40;;;60.50;;
77602;SDS011;66771;52.434;17.056;2023-03-01T03:06:22;133.80;;;59.00;;
77602;SDS011;66771;52.434;17.056;2023-03-01T03:09:05;151.50;;;63.00;;
77602;SDS011;66771;52.434;17.056;2023-03-01T03:26:02;128.50;;;56.40;;
77602;SDS011;66771;52.434;17.056;2023-03-01T03:28:39;130.60;;;57.30;;
77602;SDS011;66771;52.434;17.056;2023-03-01T03:31:21;125.60;;;56.00;;
77602;SDS011;66771;52.434;17.056;2023-03-01T03:34:15;125.90;;;57.20;;
77602;SDS011;66771;52.434;17.056;2023-03-01T03:37:02;131.50;;;55.50;;
77602;SDS011;66771;52.434;17.056;2023-03-01T03:39:56;132.60;;;56.10;;
77602;SDS011;66771;52.434;17.056;2023-03-01T03:42:38;124.50;;;57.80;;
77602;SDS011;66771;52.434;17.056;2023-03-01T03:57:09;128.60;;;54.70;;
77602;SDS011;66771;52.434;17.056;2023-03-01T04:11:21;123.90;;;55.00;;
77602;SDS011;66771;52.434;17.056;2023-03-01T04:14:41;127.90;;;56.00;;
77602;SDS011;66771;52.434;17.056;2023-03-01T04:17:29;125.30;;;54.80;;
77602;SDS011;66771;52.434;17.056;2023-03-01T04:20:03;146.30;;;56.70;;
77602;SDS011;66771;52.434;17.056;2023-03-01T04:22:35;121.40;;;55.80;;
77602;SDS011;66771;52.434;17.056;2023-03-01T04:25:17;130.20;;;56.80;;
77602;SDS011;66771;52.434;17.056;2023-03-01T04:27:56;142.20;;;58.50;;
77602;SDS011;66771;52.434;17.056;2023-03-01T04:38:05;131.00;;;55.00;;
77602;SDS011;66771;52.434;17.056;2023-03-01T04:41:26;134.80;;;57.30;;
77602;SDS011;66771;52.434;17.056;2023-03-01T04:44:06;130.50;;;54.60;;
77602;SDS011;66771;52.434;17.056;2023-03-01T04:46:44;132.60;;;55.50;;
77602;SDS011;66771;52.434;17.056;2023-03-01T04:49:16;129.40;;;59.10;;
77602;SDS011;66771;52.434;17.056;2023-03-01T04:55:16;140.00;;;56.20;;
77602;SDS011;66771;52.434;17.056;2023-03-01T04:57:54;136.10;;;58.90;;
77602;SDS011;66771;52.434;17.056;2023-03-01T05:00:22;123.90;;;52.80;;
77602;SDS011;66771;52.434;17.056;2023-03-01T05:02:54;137.60;;;57.60;;
77602;SDS011;66771;52.434;17.056;2023-03-01T05:05:33;130.80;;;54.90;;
77602;SDS011;66771;52.434;17.056;2023-03-01T05:08:05;130.80;;;57.10;;
77602;SDS011;66771;52.434;17.056;2023-03-01T05:10:37;137.00;;;57.60;;
77602;SDS011;66771;52.434;17.056;2023-03-01T05:13:11;127.30;;;54.40;;
77602;SDS011;66771;52.434;17.056;2023-03-01T05:15:57;126.70;;;57.00;;
77602;SDS011;66771;52.434;17.056;2023-03-01T05:21:54;136.40;;;55.30;;
77602;SDS011;66771;52.434;17.056;2023-03-01T05:24:56;127.20;;;56.00;;
77602;SDS011;66771;52.434;17.056;2023-03-01T05:27:29;129.90;;;57.10;;
77602;SDS011;66771;52.434;17.056;2023-03-01T05:30:31;123.60;;;55.20;;
77602;SDS011;66771;52.434;17.056;2023-03-01T05:37:05;137.30;;;53.60;;
77602;SDS011;66771;52.434;17.056;2023-03-01T05:39:34;134.60;;;57.50;;
77602;SDS011;66771;52.434;17.056;2023-03-01T05:42:33;134.70;;;57.20;;
77602;SDS011;66771;52.434;17.056;2023-03-01T05:45:07;122.50;;;54.60;;
77602;SDS011;66771;52.434;17.056;2023-03-01T05:47:52;132.10;;;55.30;;
77602;SDS011;66771;52.434;17.056;2023-03-01T05:50:23;120.20;;;54.90;;
77602;SDS011;66771;52.434;17.056;2023-03-01T05:52:58;135.90;;;56.70;;
77602;SDS011;66771;52.434;17.056;2023-03-01T05:55:34;127.40;;;52.50;;
77602;SDS011;66771;52.434;17.056;2023-03-01T05:58:10;130.70;;;53.30;;
77602;SDS011;66771;52.434;17.056;2023-03-01T06:01:02;112.70;;;49.80;;
77602;SDS011;66771;52.434;17.056;2023-03-01T06:03:56;122.70;;;55.60;;
77602;SDS011;66771;52.434;17.056;2023-03-01T06:06:37;127.40;;;58.50;;
77602;SDS011;66771;52.434;17.056;2023-03-01T06:09:30;136.50;;;58.70;;
77602;SDS011;66771;52.434;17.056;2023-03-01T06:12:20;124.50;;;53.90;;
77602;SDS011;66771;52.434;17.056;2023-03-01T06:14:48;143.30;;;59.10;;
77602;SDS011;66771;52.434;17.056;2023-03-01T06:17:24;133.20;;;58.90;;
77602;SDS011;66771;52.434;17.056;2023-03-01T06:19:52;132.20;;;59.10;;
77602;SDS011;66771;52.434;17.056;2023-03-01T06:22:32;127.10;;;56.90;;
77602;SDS011;66771;52.434;17.056;2023-03-01T06:24:59;126.60;;;58.30;;
77602;SDS011;66771;52.434;17.056;2023-03-01T06:27:30;122.20;;;54.70;;
77602;SDS011;66771;52.434;17.056;2023-03-01T06:29:57;129.70;;;55.80;;
77602;SDS011;66771;52.434;17.056;2023-03-01T06:32:25;135.40;;;58.20;;
77602;SDS011;66771;52.434;17.056;2023-03-01T06:35:15;131.10;;;56.30;;
77602;SDS011;66771;52.434;17.056;2023-03-01T06:37:47;128.90;;;58.00;;
77602;SDS011;66771;52.434;17.056;2023-03-01T06:40:19;122.50;;;54.00;;
77602;SDS011;66771;52.434;17.056;2023-03-01T06:42:50;116.20;;;53.20;;
77602;SDS011;66771;52.434;17.056;2023-03-01T06:45:37;111.80;;;52.00;;
77602;SDS011;66771;52.434;17.056;2023-03-01T06:48:27;122.70;;;53.10;;
77602;SDS011;66771;52.434;17.056;2023-03-01T06:51:08;119.60;;;54.00;;
77602;SDS011;66771;52.434;17.056;2023-03-01T06:54:21;120.40;;;54.90;;
77602;SDS011;66771;52.434;17.056;2023-03-01T06:57:22;120.00;;;55.00;;
77602;SDS011;66771;52.434;17.056;2023-03-01T07:00:02;121.60;;;54.80;;
77602;SDS011;66771;52.434;17.056;2023-03-01T07:10:09;138.80;;;59.20;;
77602;SDS011;66771;52.434;17.056;2023-03-01T07:20:39;159.00;;;68.90;;
77602;SDS011;66771;52.434;17.056;2023-03-01T07:28:29;159.60;;;75.10;;
77602;SDS011;66771;52.434;17.056;2023-03-01T07:35:01;184.80;;;82.80;;
77602;SDS011;66771;52.434;17.056;2023-03-01T08:18:41;92.60;;;43.00;;
77602;SDS011;66771;52.434;17.056;2023-03-01T08:40:33;42.30;;;22.70;;
77602;SDS011;66771;52.434;17.056;2023-03-01T09:06:30;36.10;;;17.60;;
77602;SDS011;66771;52.434;17.056;2023-03-01T09:48:15;22.50;;;12.40;;
77602;SDS011;66771;52.434;17.056;2023-03-01T09:51:34;20.90;;;11.80;;
77602;SDS011;66771;52.434;17.056;2023-03-01T10:29:00;13.80;;;8.90;;
77602;SDS011;66771;52.434;17.056;2023-03-01T10:32:00;15.90;;;8.80;;
77602;SDS011;66771;52.434;17.056;2023-03-01T10:34:33;12.50;;;7.50;;
77602;SDS011;66771;52.434;17.056;2023-03-01T10:37:12;13.80;;;7.50;;
77602;SDS011;66771;52.434;17.056;2023-03-01T10:39:56;11.80;;;7.50;;
77602;SDS011;66771;52.434;17.056;2023-03-01T10:42:46;17.70;;;7.60;;
77602;SDS011;66771;52.434;17.056;2023-03-01T10:49:12;15.20;;;8.00;;
77602;SDS011;66771;52.434;17.056;2023-03-01T10:51:44;16.40;;;7.70;;
77602;SDS011;66771;52.434;17.056;2023-03-01T10:54:25;12.00;;;6.50;;
77602;SDS011;66771;52.434;17.056;2023-03-01T10:57:43;14.40;;;7.50;;
77602;SDS011;66771;52.434;17.056;2023-03-01T11:00:59;11.70;;;7.10;;
77602;SDS011;66771;52.434;17.056;2023-03-01T11:03:38;15.20;;;8.40;;
77602;SDS011;66771;52.434;17.056;2023-03-01T11:06:19;16.40;;;8.50;;
77602;SDS011;66771;52.434;17.056;2023-03-01T11:08:48;12.00;;;6.90;;
77602;SDS011;66771;52.434;17.056;2023-03-01T11:11:33;12.40;;;6.90;;
77602;SDS011;66771;52.434;17.056;2023-03-01T11:17:51;11.80;;;6.20;;
77602;SDS011;66771;52.434;17.056;2023-03-01T11:27:08;12.20;;;6.70;;
77602;SDS011;66771;52.434;17.056;2023-03-01T11:29:52;11.00;;;6.30;;
77602;SDS011;66771;52.434;17.056;2023-03-01T11:32:45;12.40;;;5.20;;
77602;SDS011;66771;52.434;17.056;2023-03-01T11:35:21;8.50;;;5.40;;
77602;SDS011;66771;52.434;17.056;2023-03-01T11:37:59;10.10;;;6.10;;
77602;SDS011;66771;52.434;17.056;2023-03-01T11:40:37;11.80;;;6.90;;
77602;SDS011;66771;52.434;17.056;2023-03-01T11:43:29;11.30;;;6.90;;
77602;SDS011;66771;52.434;17.056;2023-03-01T11:52:56;8.00;;;5.60;;
77602;SDS011;66771;52.434;17.056;2023-03-01T11:55:54;12.60;;;6.60;;
77602;SDS011;66771;52.434;17.056;2023-03-01T11:59:06;10.50;;;6.70;;
77602;SDS011;66771;52.434;17.056;2023-03-01T12:04:53;10.00;;;5.90;;
77602;SDS011;66771;52.434;17.056;2023-03-01T12:07:50;10.80;;;6.60;;
77602;SDS011;66771;52.434;17.056;2023-03-01T12:19:05;13.00;;;7.40;;
77602;SDS011;66771;52.434;17.056;2023-03-01T12:27:33;10.40;;;6.60;;
77602;SDS011;66771;52.434;17.056;2023-03-01T12:30:22;8.00;;;6.50;;
77602;SDS011;66771;52.434;17.056;2023-03-01T12:33:17;11.10;;;7.00;;
77602;SDS011;66771;52.434;17.056;2023-03-01T12:35:53;12.50;;;7.30;;
77602;SDS011;66771;52.434;17.056;2023-03-01T12:47:01;10.90;;;6.10;;
77602;SDS011;66771;52.434;17.056;2023-03-01T12:50:00;10.80;;;5.50;;
77602;SDS011;66771;52.434;17.056;2023-03-01T12:52:35;7.40;;;5.10;;
77602;SDS011;66771;52.434;17.056;2023-03-01T12:55:31;8.90;;;5.60;;
77602;SDS011;66771;52.434;17.056;2023-03-01T13:09:45;11.70;;;7.30;;
77602;SDS011;66771;52.434;17.056;2023-03-01T13:15:35;10.70;;;5.20;;
77602;SDS011;66771;52.434;17.056;2023-03-01T13:21:07;8.60;;;6.00;;
77602;SDS011;66771;52.434;17.056;2023-03-01T13:23:55;10.30;;;5.70;;
77602;SDS011;66771;52.434;17.056;2023-03-01T13:33:49;8.20;;;5.20;;
77602;SDS011;66771;52.434;17.056;2023-03-01T13:42:48;11.90;;;7.50;;
77602;SDS011;66771;52.434;17.056;2023-03-01T13:48:29;12.60;;;7.60;;
77602;SDS011;66771;52.434;17.056;2023-03-01T13:51:27;10.00;;;5.70;;
77602;SDS011;66771;52.434;17.056;2023-03-01T13:54:16;10.50;;;6.60;;
77602;SDS011;66771;52.434;17.056;2023-03-01T13:57:21;10.90;;;6.20;;
77602;SDS011;66771;52.434;17.056;2023-03-01T14:00:23;11.10;;;7.00;;
77602;SDS011;66771;52.434;17.056;2023-03-01T14:06:14;12.20;;;7.00;;
77602;SDS011;66771;52.434;17.056;2023-03-01T14:09:16;13.40;;;6.80;;
77602;SDS011;66771;52.434;17.056;2023-03-01T14:15:02;11.00;;;6.40;;
77602;SDS011;66771;52.434;17.056;2023-03-01T14:21:12;7.80;;;5.80;;
77602;SDS011;66771;52.434;17.056;2023-03-01T14:23:54;14.70;;;8.60;;
77602;SDS011;66771;52.434;17.056;2023-03-01T14:26:37;11.20;;;6.50;;
77602;SDS011;66771;52.434;17.056;2023-03-01T14:29:04;12.20;;;5.90;;
77602;SDS011;66771;52.434;17.056;2023-03-01T14:34:03;10.50;;;5.80;;
77602;SDS011;66771;52.434;17.056;2023-03-01T14:36:31;14.70;;;6.60;;
77602;SDS011;66771;52.434;17.056;2023-03-01T14:39:00;11.80;;;6.60;;
77602;SDS011;66771;52.434;17.056;2023-03-01T14:41:34;10.20;;;6.30;;
77602;SDS011;66771;52.434;17.056;2023-03-01T14:44:11;12.90;;;7.60;;
77602;SDS011;66771;52.434;17.056;2023-03-01T14:46:44;13.90;;;7.60;;
77602;SDS011;66771;52.434;17.056;2023-03-01T14:49:24;11.00;;;7.20;;
77602;SDS011;66771;52.434;17.056;2023-03-01T14:55:01;11.30;;;6.70;;
77602;SDS011;66771;52.434;17.056;2023-03-01T14:57:34;10.40;;;7.40;;
77602;SDS011;66771;52.434;17.056;2023-03-01T15:00:10;12.10;;;6.80;;
77602;SDS011;66771;52.434;17.056;2023-03-01T15:03:47;9.80;;;6.50;;
77602;SDS011;66771;52.434;17.056;2023-03-01T15:06:09;11.20;;;6.50;;
77602;SDS011;66771;52.434;17.056;2023-03-01T15:08:47;11.30;;;6.30;;
77602;SDS011;66771;52.434;17.056;2023-03-01T15:11:23;14.50;;;6.90;;
77602;SDS011;66771;52.434;17.056;2023-03-01T15:13:55;10.90;;;6.40;;
77602;SDS011;66771;52.434;17.056;2023-03-01T15:16:26;12.10;;;6.70;;
77602;SDS011;66771;52.434;17.056;2023-03-01T15:19:00;11.40;;;7.10;;
77602;SDS011;66771;52.434;17.056;2023-03-01T15:21:40;9.20;;;6.30;;
77602;SDS011;66771;52.434;17.056;2023-03-01T15:26:51;28.50;;;19.90;;
77602;SDS011;66771;52.434;17.056;2023-03-01T15:29:43;17.30;;;10.70;;
77602;SDS011;66771;52.434;17.056;2023-03-01T15:32:54;13.00;;;8.10;;
77602;SDS011;66771;52.434;17.056;2023-03-01T15:35:56;13.30;;;8.60;;
77602;SDS011;66771;52.434;17.056;2023-03-01T15:44:44;10.90;;;6.70;;
77602;SDS011;66771;52.434;17.056;2023-03-01T15:47:28;13.30;;;7.20;;
77602;SDS011;66771;52.434;17.056;2023-03-01T15:50:11;11.80;;;6.90;;
77602;SDS011;66771;52.434;17.056;2023-03-01T15:55:35;12.40;;;7.40;;
77602;SDS011;66771;52.434;17.056;2023-03-01T16:01:17;12.20;;;7.10;;
77602;SDS011;66771;52.434;17.056;2023-03-01T16:04:01;10.70;;;6.50;;
77602;SDS011;66771;52.434;17.056;2023-03-01T16:06:53;10.90;;;6.70;;
77602;SDS011;66771;52.434;17.056;2023-03-01T16:09:29;13.30;;;7.20;;
77602;SDS011;66771;52.434;17.056;2023-03-01T16:12:28;16.20;;;8.00;;
77602;SDS011;66771;52.434;17.056;2023-03-01T16:15:10;15.50;;;7.40;;
77602;SDS011;66771;52.434;17.056;2023-03-01T16:17:55;15.00;;;7.80;;
77602;SDS011;66771;52.434;17.056;2023-03-01T16:20:26;13.50;;;7.80;;
77602;SDS011;66771;52.434;17.056;2023-03-01T16:23:04;13.10;;;6.90;;
77602;SDS011;66771;52.434;17.056;2023-03-01T16:25:44;13.30;;;7.00;;
77602;SDS011;66771;52.434;17.056;2023-03-01T16:28:20;12.20;;;7.10;;
77602;SDS011;66771;52.434;17.056;2023-03-01T16:30:47;16.90;;;8.10;;
77602;SDS011;66771;52.434;17.056;2023-03-01T16:33:40;14.80;;;7.90;;
77602;SDS011;66771;52.434;17.056;2023-03-01T16:36:37;13.80;;;7.90;;
77602;SDS011;66771;52.434;17.056;2023-03-01T16:39:14;15.40;;;7.10;;
77602;SDS011;66771;52.434;17.056;2023-03-01T16:41:46;11.50;;;7.00;;
77602;SDS011;66771;52.434;17.056;2023-03-01T16:47:20;13.00;;;7.80;;
77602;SDS011;66771;52.434;17.056;2023-03-01T16:49:51;11.40;;;6.90;;
77602;SDS011;66771;52.434;17.056;2023-03-01T16:52:19;14.90;;;7.20;;
77602;SDS011;66771;52.434;17.056;2023-03-01T16:54:47;13.00;;;7.30;;
77602;SDS011;66771;52.434;17.056;2023-03-01T16:57:15;14.30;;;7.00;;
77602;SDS011;66771;52.434;17.056;2023-03-01T16:59:42;16.60;;;7.20;;
77602;SDS011;66771;52.434;17.056;2023-03-01T17:02:10;12.70;;;7.10;;
77602;SDS011;66771;52.434;17.056;2023-03-01T17:05:11;15.70;;;8.00;;
77602;SDS011;66771;52.434;17.056;2023-03-01T17:07:39;14.60;;;7.60;;
77602;SDS011;66771;52.434;17.056;2023-03-01T17:10:11;12.80;;;7.90;;
77602;SDS011;66771;52.434;17.056;2023-03-01T17:12:50;13.10;;;6.70;;
77602;SDS011;66771;52.434;17.056;2023-03-01T17:15:17;13.30;;;6.40;;
77602;SDS011;66771;52.434;17.056;2023-03-01T17:17:44;15.20;;;7.40;;
77602;SDS011;66771;52.434;17.056;2023-03-01T17:20:25;13.10;;;6.60;;
77602;SDS011;66771;52.434;17.056;2023-03-01T17:23:03;15.40;;;7.50;;
77602;SDS011;66771;52.434;17.056;2023-03-01T17:25:31;15.50;;;7.50;;
77602;SDS011;66771;52.434;17.056;2023-03-01T17:28:02;15.80;;;8.10;;
77602;SDS011;66771;52.434;17.056;2023-03-01T17:30:52;15.30;;;7.20;;
77602;SDS011;66771;52.434;17.056;2023-03-01T17:33:23;15.10;;;7.30;;
77602;SDS011;66771;52.434;17.056;2023-03-01T17:35:59;14.40;;;7.50;;
77602;SDS011;66771;52.434;17.056;2023-03-01T17:38:33;17.50;;;7.90;;
77602;SDS011;66771;52.434;17.056;2023-03-01T17:41:03;14.30;;;7.70;;
77602;SDS011;66771;52.434;17.056;2023-03-01T17:43:30;15.00;;;7.20;;
77602;SDS011;66771;52.434;17.056;2023-03-01T17:46:26;17.40;;;7.90;;
77602;SDS011;66771;52.434;17.056;2023-03-01T17:48:54;16.30;;;7.80;;
77602;SDS011;66771;52.434;17.056;2023-03-01T17:54:13;17.30;;;8.70;;
77602;SDS011;66771;52.434;17.056;2023-03-01T17:56:58;18.40;;;10.10;;
77602;SDS011;66771;52.434;17.056;2023-03-01T17:59:47;19.50;;;10.80;;
77602;SDS011;66771;52.434;17.056;2023-03-01T18:02:17;19.70;;;10.50;;
77602;SDS011;66771;52.434;17.056;2023-03-01T18:04:47;22.10;;;11.30;;
77602;SDS011;66771;52.434;17.056;2023-03-01T18:07:17;18.20;;;10.40;;
77602;SDS011;66771;52.434;17.056;2023-03-01T18:09:45;20.60;;;11.30;;
77602;SDS011;66771;52.434;17.056;2023-03-01T18:12:12;17.50;;;9.80;;
77602;SDS011;66771;52.434;17.056;2023-03-01T18:14:42;18.00;;;10.50;;
77602;SDS011;66771;52.434;17.056;2023-03-01T18:17:12;19.20;;;11.30;;
77602;SDS011;66771;52.434;17.056;2023-03-01T18:22:39;20.30;;;12.60;;
77602;SDS011;66771;52.434;17.056;2023-03-01T18:25:31;26.80;;;13.10;;
77602;SDS011;66771;52.434;17.056;2023-03-01T18:27:58;20.20;;;12.00;;
77602;SDS011;66771;52.434;17.056;2023-03-01T18:30:32;21.20;;;11.70;;
77602;SDS011;66771;52.434;17.056;2023-03-01T18:33:02;22.30;;;12.40;;
77602;SDS011;66771;52.434;17.056;2023-03-01T18:35:35;21.90;;;12.60;;
77602;SDS011;66771;52.434;17.056;2023-03-01T18:38:02;24.80;;;13.40;;
77602;SDS011;66771;52.434;17.056;2023-03-01T18:40:29;27.90;;;16.80;;
77602;SDS011;66771;52.434;17.056;2023-03-01T18:42:57;28.10;;;14.20;;
77602;SDS011;66771;52.434;17.056;2023-03-01T18:45:24;28.70;;;15.50;;
77602;SDS011;66771;52.434;17.056;2023-03-01T18:48:01;25.70;;;13.50;;
77602;SDS011;66771;52.434;17.056;2023-03-01T18:50:49;25.20;;;14.90;;
77602;SDS011;66771;52.434;17.056;2023-03-01T18:53:18;24.30;;;13.80;;
77602;SDS011;66771;52.434;17.056;2023-03-01T18:55:48;23.20;;;12.50;;
77602;SDS011;66771;52.434;17.056;2023-03-01T18:58:18;30.50;;;17.70;;
77602;SDS011;66771;52.434;17.056;2023-03-01T19:00:45;47.30;;;23.70;;
77602;SDS011;66771;52.434;17.056;2023-03-01T19:03:17;44.90;;;24.80;;
77602;SDS011;66771;52.434;17.056;2023-03-01T19:05:46;47.60;;;23.40;;
77602;SDS011;66771;52.434;17.056;2023-03-01T19:08:32;63.30;;;30.20;;
77602;SDS011;66771;52.434;17.056;2023-03-01T19:11:02;33.90;;;17.80;;
77602;SDS011;66771;52.434;17.056;2023-03-01T19:13:45;33.30;;;18.00;;
77602;SDS011;66771;52.434;17.056;2023-03-01T19:19:03;55.50;;;26.90;;
77602;SDS011;66771;52.434;17.056;2023-03-01T19:21:34;58.80;;;29.10;;
77602;SDS011;66771;52.434;17.056;2023-03-01T19:24:01;54.30;;;26.10;;
77602;SDS011;66771;52.434;17.056;2023-03-01T19:26:28;48.30;;;24.20;;
77602;SDS011;66771;52.434;17.056;2023-03-01T19:28:59;51.80;;;23.30;;
77602;SDS011;66771;52.434;17.056;2023-03-01T19:31:37;61.90;;;29.10;;
77602;SDS011;66771;52.434;17.056;2023-03-01T19:34:12;81.30;;;40.10;;
77602;SDS011;66771;52.434;17.056;2023-03-01T19:36:47;96.00;;;45.60;;
77602;SDS011;66771;52.434;17.056;2023-03-01T19:39:14;78.50;;;37.40;;
77602;SDS011;66771;52.434;17.056;2023-03-01T19:41:53;78.50;;;38.30;;
77602;SDS011;66771;52.434;17.056;2023-03-01T19:44:22;82.90;;;39.70;;
77602;SDS011;66771;52.434;17.056;2023-03-01T19:49:49;84.30;;;41.40;;
77602;SDS011;66771;52.434;17.056;2023-03-01T19:52:42;105.90;;;48.30;;
77602;SDS011;66771;52.434;17.056;2023-03-01T19:55:11;108.80;;;49.30;;
77602;SDS011;66771;52.434;17.056;2023-03-01T19:57:41;119.20;;;54.70;;
77602;SDS011;66771;52.434;17.056;2023-03-01T20:02:46;124.30;;;57.20;;
77602;SDS011;66771;52.434;17.056;2023-03-01T20:08:20;120.50;;;53.70;;
77602;SDS011;66771;52.434;17.056;2023-03-01T20:10:50;117.90;;;54.00;;
77602;SDS011;66771;52.434;17.056;2023-03-01T20:13:20;117.50;;;53.50;;
77602;SDS011;66771;52.434;17.056;2023-03-01T20:18:59;142.90;;;56.40;;
77602;SDS011;66771;52.434;17.056;2023-03-01T20:21:30;116.10;;;53.60;;
77602;SDS011;66771;52.434;17.056;2023-03-01T20:24:17;121.00;;;54.40;;
77602;SDS011;66771;52.434;17.056;2023-03-01T20:26:47;137.40;;;59.10;;
77602;SDS011;66771;52.434;17.056;2023-03-01T20:29:26;143.30;;;57.90;;
77602;SDS011;66771;52.434;17.056;2023-03-01T20:31:58;129.80;;;57.50;;
77602;SDS011;66771;52.434;17.056;2023-03-01T20:34:36;135.80;;;59.60;;
77602;SDS011;66771;52.434;17.056;2023-03-01T20:37:20;136.30;;;58.90;;
77602;SDS011;66771;52.434;17.056;2023-03-01T20:40:02;130.80;;;57.30;;
77602;SDS011;66771;52.434;17.056;2023-03-01T20:46:31;123.90;;;54.90;;
77602;SDS011;66771;52.434;17.056;2023-03-01T20:49:31;124.30;;;54.50;;
77602;SDS011;66771;52.434;17.056;2023-03-01T20:52:35;117.70;;;54.90;;
77602;SDS011;66771;52.434;17.056;2023-03-01T20:58:15;98.30;;;47.10;;
77602;SDS011;66771;52.434;17.056;2023-03-01T21:04:24;95.10;;;45.10;;
77602;SDS011;66771;52.434;17.056;2023-03-01T21:07:34;82.80;;;40.10;;
77602;SDS011;66771;52.434;17.056;2023-03-01T21:10:23;92.60;;;40.70;;
77602;SDS011;66771;52.434;17.056;2023-03-01T21:13:25;84.30;;;38.20;;
77602;SDS011;66771;52.434;17.056;2023-03-01T21:16:29;86.40;;;41.80;;
77602;SDS011;66771;52.434;17.056;2023-03-01T21:19:17;85.90;;;38.30;;
77602;SDS011;66771;52.434;17.056;2023-03-01T21:21:47;87.60;;;39.10;;
77602;SDS011;66771;52.434;17.056;2023-03-01T21:24:14;74.50;;;36.80;;
77602;SDS011;66771;52.434;17.056;2023-03-01T21:27:02;84.60;;;37.90;;
77602;SDS011;66771;52.434;17.056;2023-03-01T21:29:38;77.70;;;36.40;;
77602;SDS011;66771;52.434;17.056;2023-03-01T21:32:07;78.80;;;36.60;;
77602;SDS011;66771;52.434;17.056;2023-03-01T21:35:14;79.10;;;36.70;;
77602;SDS011;66771;52.434;17.056;2023-03-01T21:38:06;77.80;;;37.80;;
77602;SDS011;66771;52.434;17.056;2023-03-01T21:46:54;78.80;;;35.50;;
77602;SDS011;66771;52.434;17.056;2023-03-01T21:49:47;79.50;;;37.10;;
77602;SDS011;66771;52.434;17.056;2023-03-01T21:52:17;78.90;;;37.30;;
77602;SDS011;66771;52.434;17.056;2023-03-01T21:55:05;78.00;;;37.50;;
77602;SDS011;66771;52.434;17.056;2023-03-01T21:57:38;79.00;;;38.20;;
77602;SDS011;66771;52.434;17.056;2023-03-01T22:00:10;88.50;;;41.50;;
77602;SDS011;66771;52.434;17.056;2023-03-01T22:12:29;90.00;;;40.00;;
77602;SDS011;66771;52.434;17.056;2023-03-01T22:15:38;84.20;;;38.80;;
77602;SDS011;66771;52.434;17.056;2023-03-01T22:21:23;76.70;;;38.60;;
77602;SDS011;66771;52.434;17.056;2023-03-01T22:24:32;83.20;;;40.20;;
77602;SDS011;66771;52.434;17.056;2023-03-01T22:31:07;88.80;;;41.90;;
77602;SDS011;66771;52.434;17.056;2023-03-01T22:34:25;93.70;;;42.80;;
77602;SDS011;66771;52.434;17.056;2023-03-01T22:36:53;90.20;;;45.20;;
77602;SDS011;66771;52.434;17.056;2023-03-01T22:39:40;91.10;;;42.00;;